sensor_id;sensor_type;location;lat;lon;timestamp;pressure;altitude;pressure_sealevel;temperature
20733;BMP180;10527;52.124;5.196;2023-08-24T00:01:23;101750.00;;;30.50
20733;BMP180;10527;52.124;5.196;2023-08-24T00:03:50;101752.00;;;30.50
20733;BMP180;10527;52.124;5.196;2023-08-24T00:06:32;101752.00;;;30.40
20733;BMP180;10527;52.124;5.196;2023-08-24T00:08:59;101752.00;;;30.40
20733;BMP180;10527;52.124;5.196;2023-08-24T00:11:26;101757.00;;;30.40
20733;BMP180;10527;52.124;5.196;2023-08-24T00:13:53;101766.00;;;30.40
20733;BMP180;10527;52.124;5.196;2023-08-24T00:16:20;101750.00;;;30.30
20733;BMP180;10527;52.124;5.196;2023-08-24T00:18:48;101747.00;;;30.30
20733;BMP180;10527;52.124;5.196;2023-08-24T00:21:15;101756.00;;;30.30
20733;BMP180;10527;52.124;5.196;2023-08-24T00:23:50;101758.00;;;30.30
20733;BMP180;10527;52.124;5.196;2023-08-24T00:26:19;101748.00;;;30.30
20733;BMP180;10527;52.124;5.196;2023-08-24T00:28:46;101722.00;;;30.30
20733;BMP180;10527;52.124;5.196;2023-08-24T00:31:15;101720.00;;;30.30
20733;BMP180;10527;52.124;5.196;2023-08-24T00:33:43;101712.00;;;30.30
20733;BMP180;10527;52.124;5.196;2023-08-24T00:36:13;101715.00;;;30.30
20733;BMP180;10527;52.124;5.196;2023-08-24T00:38:40;101720.00;;;30.30
20733;BMP180;10527;52.124;5.196;2023-08-24T00:41:07;101715.00;;;30.20
20733;BMP180;10527;52.124;5.196;2023-08-24T00:43:34;101710.00;;;30.20
20733;BMP180;10527;52.124;5.196;2023-08-24T00:46:03;101707.00;;;30.20
20733;BMP180;10527;52.124;5.196;2023-08-24T00:48:33;101708.00;;;30.20
20733;BMP180;10527;52.124;5.196;2023-08-24T00:51:04;101719.00;;;30.20
20733;BMP180;10527;52.124;5.196;2023-08-24T00:53:31;101724.00;;;30.20
20733;BMP180;10527;52.124;5.196;2023-08-24T00:56:01;101727.00;;;30.20
20733;BMP180;10527;52.124;5.196;2023-08-24T00:58:29;101721.00;;;30.20
20733;BMP180;10527;52.124;5.196;2023-08-24T01:00:57;101724.00;;;30.20
20733;BMP180;10527;52.124;5.196;2023-08-24T01:03:24;101729.00;;;30.20
20733;BMP180;10527;52.124;5.196;2023-08-24T01:05:52;101720.00;;;30.20
20733;BMP180;10527;52.124;5.196;2023-08-24T01:08:21;101717.00;;;30.20
20733;BMP180;10527;52.124;5.196;2023-08-24T01:12:02;101721.00;;;30.20
20733;BMP180;10527;52.124;5.196;2023-08-24T01:17:47;101715.00;;;30.10
20733;BMP180;10527;52.124;5.196;2023-08-24T01:20:18;101728.00;;;30.00
20733;BMP180;10527;52.124;5.196;2023-08-24T01:23:07;101717.00;;;30.00
20733;BMP180;10527;52.124;5.196;2023-08-24T01:26:00;101722.00;;;30.00
20733;BMP180;10527;52.124;5.196;2023-08-24T01:28:28;101716.00;;;30.00
20733;BMP180;10527;52.124;5.196;2023-08-24T01:30:55;101704.00;;;30.00
20733;BMP180;10527;52.124;5.196;2023-08-24T01:33:22;101708.00;;;30.00
20733;BMP180;10527;52.124;5.196;2023-08-24T01:35:49;101712.00;;;30.00
20733;BMP180;10527;52.124;5.196;2023-08-24T01:38:16;101725.00;;;30.00
20733;BMP180;10527;52.124;5.196;2023-08-24T01:40:55;101725.00;;;30.00
20733;BMP180;10527;52.124;5.196;2023-08-24T01:43:31;101722.00;;;30.00
20733;BMP180;10527;52.124;5.196;2023-08-24T01:46:15;101720.00;;;30.00
20733;BMP180;10527;52.124;5.196;2023-08-24T01:48:43;101710.00;;;29.90
20733;BMP180;10527;52.124;5.196;2023-08-24T01:51:15;101706.00;;;29.90
20733;BMP180;10527;52.124;5.196;2023-08-24T01:53:43;101715.00;;;29.90
20733;BMP180;10527;52.124;5.196;2023-08-24T01:56:16;101700.00;;;29.90
20733;BMP180;10527;52.124;5.196;2023-08-24T01:58:43;101703.00;;;29.90
20733;BMP180;10527;52.124;5.196;2023-08-24T02:01:13;101692.00;;;29.90
20733;BMP180;10527;52.124;5.196;2023-08-24T02:03:40;101698.00;;;29.90
20733;BMP180;10527;52.124;5.196;2023-08-24T02:06:14;101699.00;;;29.90
20733;BMP180;10527;52.124;5.196;2023-08-24T02:08:41;101691.00;;;29.90
20733;BMP180;10527;52.124;5.196;2023-08-24T02:11:07;101695.00;;;29.90
20733;BMP180;10527;52.124;5.196;2023-08-24T02:13:34;101684.00;;;29.90
20733;BMP180;10527;52.124;5.196;2023-08-24T02:16:07;101685.00;;;29.90
20733;BMP180;10527;52.124;5.196;2023-08-24T02:18:35;101681.00;;;29.90
20733;BMP180;10527;52.124;5.196;2023-08-24T02:21:10;101667.00;;;29.90
20733;BMP180;10527;52.124;5.196;2023-08-24T02:23:42;101663.00;;;29.90
20733;BMP180;10527;52.124;5.196;2023-08-24T02:26:11;101649.00;;;29.90
20733;BMP180;10527;52.124;5.196;2023-08-24T02:28:38;101646.00;;;29.90
20733;BMP180;10527;52.124;5.196;2023-08-24T02:31:05;101643.00;;;29.80
20733;BMP180;10527;52.124;5.196;2023-08-24T02:33:32;101638.00;;;29.80
20733;BMP180;10527;52.124;5.196;2023-08-24T02:36:00;101638.00;;;29.80
20733;BMP180;10527;52.124;5.196;2023-08-24T02:38:27;101627.00;;;29.80
20733;BMP180;10527;52.124;5.196;2023-08-24T02:41:05;101622.00;;;29.80
20733;BMP180;10527;52.124;5.196;2023-08-24T02:43:35;101616.00;;;29.80
20733;BMP180;10527;52.124;5.196;2023-08-24T02:46:05;101606.00;;;29.80
20733;BMP180;10527;52.124;5.196;2023-08-24T02:48:33;101596.00;;;29.80
20733;BMP180;10527;52.124;5.196;2023-08-24T02:51:02;101602.00;;;29.70
20733;BMP180;10527;52.124;5.196;2023-08-24T02:53:30;101606.00;;;29.70
20733;BMP180;10527;52.124;5.196;2023-08-24T02:55:57;101609.00;;;29.70
20733;BMP180;10527;52.124;5.196;2023-08-24T02:58:24;101617.00;;;29.70
20733;BMP180;10527;52.124;5.196;2023-08-24T03:00:51;101618.00;;;29.70
20733;BMP180;10527;52.124;5.196;2023-08-24T03:03:17;101623.00;;;29.60
20733;BMP180;10527;52.124;5.196;2023-08-24T03:05:59;101627.00;;;29.60
20733;BMP180;10527;52.124;5.196;2023-08-24T03:08:26;101608.00;;;29.60
20733;BMP180;10527;52.124;5.196;2023-08-24T03:10:56;101598.00;;;29.60
20733;BMP180;10527;52.124;5.196;2023-08-24T03:13:23;101602.00;;;29.60
20733;BMP180;10527;52.124;5.196;2023-08-24T03:15:50;101595.00;;;29.60
20733;BMP180;10527;52.124;5.196;2023-08-24T03:18:19;101602.00;;;29.50
20733;BMP180;10527;52.124;5.196;2023-08-24T03:20:48;101589.00;;;29.50
20733;BMP180;10527;52.124;5.196;2023-08-24T03:23:16;101573.00;;;29.50
20733;BMP180;10527;52.124;5.196;2023-08-24T03:25:43;101584.00;;;29.50
20733;BMP180;10527;52.124;5.196;2023-08-24T03:28:10;101579.00;;;29.50
20733;BMP180;10527;52.124;5.196;2023-08-24T03:30:52;101576.00;;;29.50
20733;BMP180;10527;52.124;5.196;2023-08-24T03:33:19;101567.00;;;29.40
20733;BMP180;10527;52.124;5.196;2023-08-24T03:35:46;101582.00;;;29.40
20733;BMP180;10527;52.124;5.196;2023-08-24T03:38:13;101577.00;;;29.40
20733;BMP180;10527;52.124;5.196;2023-08-24T03:40:40;101571.00;;;29.30
20733;BMP180;10527;52.124;5.196;2023-08-24T03:43:11;101561.00;;;29.30
20733;BMP180;10527;52.124;5.196;2023-08-24T03:45:37;101564.00;;;29.30
20733;BMP180;10527;52.124;5.196;2023-08-24T03:48:05;101557.00;;;29.30
20733;BMP180;10527;52.124;5.196;2023-08-24T03:50:32;101557.00;;;29.30
20733;BMP180;10527;52.124;5.196;2023-08-24T03:53:03;101549.00;;;29.30
20733;BMP180;10527;52.124;5.196;2023-08-24T03:55:29;101540.00;;;29.20
20733;BMP180;10527;52.124;5.196;2023-08-24T03:57:56;101553.00;;;29.20
20733;BMP180;10527;52.124;5.196;2023-08-24T04:00:23;101558.00;;;29.20
20733;BMP180;10527;52.124;5.196;2023-08-24T04:02:54;101569.00;;;29.20
20733;BMP180;10527;52.124;5.196;2023-08-24T04:05:21;101568.00;;;29.20
20733;BMP180;10527;52.124;5.196;2023-08-24T04:07:47;101562.00;;;29.20
20733;BMP180;10527;52.124;5.196;2023-08-24T04:10:15;101560.00;;;29.20
20733;BMP180;10527;52.124;5.196;2023-08-24T04:12:42;101562.00;;;29.20
20733;BMP180;10527;52.124;5.196;2023-08-24T04:15:12;101561.00;;;29.10
20733;BMP180;10527;52.124;5.196;2023-08-24T04:17:39;101555.00;;;29.10
20733;BMP180;10527;52.124;5.196;2023-08-24T04:20:10;101566.00;;;29.10
20733;BMP180;10527;52.124;5.196;2023-08-24T04:22:43;101561.00;;;29.10
20733;BMP180;10527;52.124;5.196;2023-08-24T04:25:13;101563.00;;;29.10
20733;BMP180;10527;52.124;5.196;2023-08-24T04:27:42;101566.00;;;29.10
20733;BMP180;10527;52.124;5.196;2023-08-24T04:30:09;101578.00;;;29.10
20733;BMP180;10527;52.124;5.196;2023-08-24T04:32:42;101569.00;;;29.00
20733;BMP180;10527;52.124;5.196;2023-08-24T04:35:09;101573.00;;;29.00
20733;BMP180;10527;52.124;5.196;2023-08-24T04:37:37;101575.00;;;29.00
20733;BMP180;10527;52.124;5.196;2023-08-24T04:40:05;101574.00;;;29.00
20733;BMP180;10527;52.124;5.196;2023-08-24T04:42:33;101559.00;;;29.00
20733;BMP180;10527;52.124;5.196;2023-08-24T04:45:01;101567.00;;;29.00
20733;BMP180;10527;52.124;5.196;2023-08-24T04:47:28;101555.00;;;29.00
20733;BMP180;10527;52.124;5.196;2023-08-24T04:49:56;101561.00;;;29.00
20733;BMP180;10527;52.124;5.196;2023-08-24T04:52:23;101558.00;;;28.90
20733;BMP180;10527;52.124;5.196;2023-08-24T04:54:50;101572.00;;;28.90
20733;BMP180;10527;52.124;5.196;2023-08-24T04:57:17;101560.00;;;28.90
20733;BMP180;10527;52.124;5.196;2023-08-24T04:59:44;101563.00;;;28.90
20733;BMP180;10527;52.124;5.196;2023-08-24T05:02:11;101562.00;;;28.90
20733;BMP180;10527;52.124;5.196;2023-08-24T05:04:38;101559.00;;;28.90
20733;BMP180;10527;52.124;5.196;2023-08-24T05:07:05;101558.00;;;28.90
20733;BMP180;10527;52.124;5.196;2023-08-24T05:09:32;101558.00;;;28.90
20733;BMP180;10527;52.124;5.196;2023-08-24T05:11:58;101553.00;;;28.90
20733;BMP180;10527;52.124;5.196;2023-08-24T05:14:25;101553.00;;;28.80
20733;BMP180;10527;52.124;5.196;2023-08-24T05:16:56;101556.00;;;28.80
20733;BMP180;10527;52.124;5.196;2023-08-24T05:19:23;101540.00;;;28.80
20733;BMP180;10527;52.124;5.196;2023-08-24T05:22:10;101533.00;;;28.80
20733;BMP180;10527;52.124;5.196;2023-08-24T05:24:37;101525.00;;;28.80
20733;BMP180;10527;52.124;5.196;2023-08-24T05:27:04;101517.00;;;28.80
20733;BMP180;10527;52.124;5.196;2023-08-24T05:29:31;101515.00;;;28.80
20733;BMP180;10527;52.124;5.196;2023-08-24T05:31:58;101507.00;;;28.80
20733;BMP180;10527;52.124;5.196;2023-08-24T05:34:31;101515.00;;;28.80
20733;BMP180;10527;52.124;5.196;2023-08-24T05:37:00;101503.00;;;28.80
20733;BMP180;10527;52.124;5.196;2023-08-24T05:39:30;101503.00;;;28.80
20733;BMP180;10527;52.124;5.196;2023-08-24T05:41:57;101497.00;;;28.80
20733;BMP180;10527;52.124;5.196;2023-08-24T05:44:24;101485.00;;;28.80
20733;BMP180;10527;52.124;5.196;2023-08-24T05:46:51;101486.00;;;28.90
20733;BMP180;10527;52.124;5.196;2023-08-24T05:49:18;101481.00;;;28.90
20733;BMP180;10527;52.124;5.196;2023-08-24T05:51:45;101498.00;;;28.90
20733;BMP180;10527;52.124;5.196;2023-08-24T05:54:11;101490.00;;;28.90
20733;BMP180;10527;52.124;5.196;2023-08-24T05:56:42;101492.00;;;28.90
20733;BMP180;10527;52.124;5.196;2023-08-24T05:59:09;101497.00;;;28.90
20733;BMP180;10527;52.124;5.196;2023-08-24T06:01:36;101494.00;;;28.90
20733;BMP180;10527;52.124;5.196;2023-08-24T06:04:09;101486.00;;;29.00
20733;BMP180;10527;52.124;5.196;2023-08-24T06:06:36;101481.00;;;29.00
20733;BMP180;10527;52.124;5.196;2023-08-24T06:09:03;101480.00;;;29.00
20733;BMP180;10527;52.124;5.196;2023-08-24T06:11:37;101477.00;;;29.00
20733;BMP180;10527;52.124;5.196;2023-08-24T06:14:07;101473.00;;;29.00
20733;BMP180;10527;52.124;5.196;2023-08-24T06:16:36;101476.00;;;29.10
20733;BMP180;10527;52.124;5.196;2023-08-24T06:19:03;101472.00;;;29.10
20733;BMP180;10527;52.124;5.196;2023-08-24T06:21:30;101469.00;;;29.10
20733;BMP180;10527;52.124;5.196;2023-08-24T06:23:57;101462.00;;;29.10
20733;BMP180;10527;52.124;5.196;2023-08-24T06:26:24;101457.00;;;29.10
20733;BMP180;10527;52.124;5.196;2023-08-24T06:28:52;101456.00;;;29.20
20733;BMP180;10527;52.124;5.196;2023-08-24T06:31:19;101449.00;;;29.20
20733;BMP180;10527;52.124;5.196;2023-08-24T06:33:45;101458.00;;;29.20
20733;BMP180;10527;52.124;5.196;2023-08-24T06:36:13;101455.00;;;29.20
20733;BMP180;10527;52.124;5.196;2023-08-24T06:38:40;101452.00;;;29.30
20733;BMP180;10527;52.124;5.196;2023-08-24T06:41:06;101443.00;;;29.30
20733;BMP180;10527;52.124;5.196;2023-08-24T06:43:39;101433.00;;;29.30
20733;BMP180;10527;52.124;5.196;2023-08-24T06:46:06;101436.00;;;29.40
20733;BMP180;10527;52.124;5.196;2023-08-24T06:48:39;101424.00;;;29.40
20733;BMP180;10527;52.124;5.196;2023-08-24T06:51:09;101421.00;;;29.40
20733;BMP180;10527;52.124;5.196;2023-08-24T06:53:36;101412.00;;;29.50
20733;BMP180;10527;52.124;5.196;2023-08-24T06:56:03;101419.00;;;29.50
20733;BMP180;10527;52.124;5.196;2023-08-24T06:58:30;101418.00;;;29.50
20733;BMP180;10527;52.124;5.196;2023-08-24T07:00:57;101421.00;;;29.60
20733;BMP180;10527;52.124;5.196;2023-08-24T07:03:24;101423.00;;;29.60
20733;BMP180;10527;52.124;5.196;2023-08-24T07:05:51;101440.00;;;29.70
20733;BMP180;10527;52.124;5.196;2023-08-24T07:08:18;101432.00;;;29.70
20733;BMP180;10527;52.124;5.196;2023-08-24T07:10:45;101423.00;;;29.70
20733;BMP180;10527;52.124;5.196;2023-08-24T07:13:12;101418.00;;;29.80
20733;BMP180;10527;52.124;5.196;2023-08-24T07:15:39;101422.00;;;29.80
20733;BMP180;10527;52.124;5.196;2023-08-24T07:18:06;101426.00;;;29.90
20733;BMP180;10527;52.124;5.196;2023-08-24T07:20:35;101413.00;;;30.00
20733;BMP180;10527;52.124;5.196;2023-08-24T07:23:02;101417.00;;;30.00
20733;BMP180;10527;52.124;5.196;2023-08-24T07:25:31;101426.00;;;30.10
20733;BMP180;10527;52.124;5.196;2023-08-24T07:27:57;101424.00;;;30.10
20733;BMP180;10527;52.124;5.196;2023-08-24T07:30:26;101417.00;;;30.20
20733;BMP180;10527;52.124;5.196;2023-08-24T07:33:01;101424.00;;;30.20
20733;BMP180;10527;52.124;5.196;2023-08-24T07:35:30;101417.00;;;30.30
20733;BMP180;10527;52.124;5.196;2023-08-24T07:38:00;101419.00;;;30.30
20733;BMP180;10527;52.124;5.196;2023-08-24T07:40:27;101413.00;;;30.40
20733;BMP180;10527;52.124;5.196;2023-08-24T07:42:54;101421.00;;;30.40
20733;BMP180;10527;52.124;5.196;2023-08-24T07:45:23;101418.00;;;30.50
20733;BMP180;10527;52.124;5.196;2023-08-24T07:47:51;101414.00;;;30.60
20733;BMP180;10527;52.124;5.196;2023-08-24T07:50:18;101414.00;;;30.60
20733;BMP180;10527;52.124;5.196;2023-08-24T07:52:47;101416.00;;;30.70
20733;BMP180;10527;52.124;5.196;2023-08-24T07:55:15;101414.00;;;30.70
20733;BMP180;10527;52.124;5.196;2023-08-24T07:57:43;101412.00;;;30.80
20733;BMP180;10527;52.124;5.196;2023-08-24T08:00:13;101422.00;;;30.90
20733;BMP180;10527;52.124;5.196;2023-08-24T08:02:41;101410.00;;;31.00
20733;BMP180;10527;52.124;5.196;2023-08-24T08:05:08;101428.00;;;31.00
20733;BMP180;10527;52.124;5.196;2023-08-24T08:07:37;101423.00;;;31.10
20733;BMP180;10527;52.124;5.196;2023-08-24T08:10:05;101418.00;;;31.20
20733;BMP180;10527;52.124;5.196;2023-08-24T08:12:33;101405.00;;;31.40
20733;BMP180;10527;52.124;5.196;2023-08-24T08:15:01;101390.00;;;31.50
20733;BMP180;10527;52.124;5.196;2023-08-24T08:17:27;101385.00;;;31.60
20733;BMP180;10527;52.124;5.196;2023-08-24T08:19:57;101397.00;;;31.70
20733;BMP180;10527;52.124;5.196;2023-08-24T08:22:24;101394.00;;;31.90
20733;BMP180;10527;52.124;5.196;2023-08-24T08:24:52;101385.00;;;32.00
20733;BMP180;10527;52.124;5.196;2023-08-24T08:27:20;101389.00;;;32.10
20733;BMP180;10527;52.124;5.196;2023-08-24T08:29:50;101390.00;;;32.20
20733;BMP180;10527;52.124;5.196;2023-08-24T08:32:17;101380.00;;;32.40
20733;BMP180;10527;52.124;5.196;2023-08-24T08:34:44;101381.00;;;32.50
20733;BMP180;10527;52.124;5.196;2023-08-24T08:37:11;101377.00;;;32.60
20733;BMP180;10527;52.124;5.196;2023-08-24T08:39:38;101386.00;;;32.70
20733;BMP180;10527;52.124;5.196;2023-08-24T08:42:11;101372.00;;;32.80
20733;BMP180;10527;52.124;5.196;2023-08-24T08:44:41;101363.00;;;32.90
20733;BMP180;10527;52.124;5.196;2023-08-24T08:47:13;101349.00;;;33.00
20733;BMP180;10527;52.124;5.196;2023-08-24T08:49:45;101346.00;;;33.10
20733;BMP180;10527;52.124;5.196;2023-08-24T08:52:14;101347.00;;;33.20
20733;BMP180;10527;52.124;5.196;2023-08-24T08:54:41;101340.00;;;33.30
20733;BMP180;10527;52.124;5.196;2023-08-24T08:57:08;101335.00;;;33.40
20733;BMP180;10527;52.124;5.196;2023-08-24T08:59:35;101333.00;;;33.50
20733;BMP180;10527;52.124;5.196;2023-08-24T09:02:03;101327.00;;;33.60
20733;BMP180;10527;52.124;5.196;2023-08-24T09:04:33;101327.00;;;33.80
20733;BMP180;10527;52.124;5.196;2023-08-24T09:07:00;101326.00;;;33.90
20733;BMP180;10527;52.124;5.196;2023-08-24T09:09:31;101321.00;;;34.00
20733;BMP180;10527;52.124;5.196;2023-08-24T09:12:00;101315.00;;;34.10
20733;BMP180;10527;52.124;5.196;2023-08-24T09:14:27;101324.00;;;34.30
20733;BMP180;10527;52.124;5.196;2023-08-24T09:16:54;101317.00;;;34.40
20733;BMP180;10527;52.124;5.196;2023-08-24T09:19:32;101314.00;;;34.50
20733;BMP180;10527;52.124;5.196;2023-08-24T09:22:01;101305.00;;;34.70
20733;BMP180;10527;52.124;5.196;2023-08-24T09:24:35;101306.00;;;34.80
20733;BMP180;10527;52.124;5.196;2023-08-24T09:27:16;101309.00;;;34.90
20733;BMP180;10527;52.124;5.196;2023-08-24T09:32:30;101304.00;;;35.20
20733;BMP180;10527;52.124;5.196;2023-08-24T09:35:09;101296.00;;;35.30
20733;BMP180;10527;52.124;5.196;2023-08-24T09:37:37;101293.00;;;35.30
20733;BMP180;10527;52.124;5.196;2023-08-24T09:40:07;101295.00;;;35.40
20733;BMP180;10527;52.124;5.196;2023-08-24T09:42:48;101295.00;;;35.50
20733;BMP180;10527;52.124;5.196;2023-08-24T09:45:18;101307.00;;;35.60
20733;BMP180;10527;52.124;5.196;2023-08-24T09:48:06;101303.00;;;35.70
20733;BMP180;10527;52.124;5.196;2023-08-24T09:50:33;101297.00;;;35.70
20733;BMP180;10527;52.124;5.196;2023-08-24T09:53:02;101298.00;;;35.80
20733;BMP180;10527;52.124;5.196;2023-08-24T09:55:36;101300.00;;;35.80
20733;BMP180;10527;52.124;5.196;2023-08-24T09:58:09;101297.00;;;35.80
20733;BMP180;10527;52.124;5.196;2023-08-24T10:00:37;101303.00;;;35.80
20733;BMP180;10527;52.124;5.196;2023-08-24T10:03:05;101294.00;;;35.80
20733;BMP180;10527;52.124;5.196;2023-08-24T10:05:33;101297.00;;;35.70
20733;BMP180;10527;52.124;5.196;2023-08-24T10:08:12;101307.00;;;35.70
20733;BMP180;10527;52.124;5.196;2023-08-24T10:10:43;101309.00;;;35.60
20733;BMP180;10527;52.124;5.196;2023-08-24T10:13:37;101308.00;;;35.60
20733;BMP180;10527;52.124;5.196;2023-08-24T10:16:08;101305.00;;;35.50
20733;BMP180;10527;52.124;5.196;2023-08-24T10:18:37;101315.00;;;35.40
20733;BMP180;10527;52.124;5.196;2023-08-24T10:21:04;101305.00;;;35.30
20733;BMP180;10527;52.124;5.196;2023-08-24T10:23:34;101309.00;;;35.20
20733;BMP180;10527;52.124;5.196;2023-08-24T10:26:04;101299.00;;;35.20
20733;BMP180;10527;52.124;5.196;2023-08-24T10:28:33;101305.00;;;35.10
20733;BMP180;10527;52.124;5.196;2023-08-24T10:31:04;101296.00;;;35.00
20733;BMP180;10527;52.124;5.196;2023-08-24T10:33:32;101297.00;;;35.00
20733;BMP180;10527;52.124;5.196;2023-08-24T10:36:06;101292.00;;;34.90
20733;BMP180;10527;52.124;5.196;2023-08-24T10:38:40;101295.00;;;34.80
20733;BMP180;10527;52.124;5.196;2023-08-24T10:41:11;101297.00;;;34.70
20733;BMP180;10527;52.124;5.196;2023-08-24T10:43:51;101295.00;;;34.70
20733;BMP180;10527;52.124;5.196;2023-08-24T10:46:20;101289.00;;;34.60
20733;BMP180;10527;52.124;5.196;2023-08-24T10:51:24;101294.00;;;34.60
20733;BMP180;10527;52.124;5.196;2023-08-24T10:53:57;101283.00;;;34.50
20733;BMP180;10527;52.124;5.196;2023-08-24T10:56:39;101288.00;;;34.50
20733;BMP180;10527;52.124;5.196;2023-08-24T10:59:15;101284.00;;;34.50
20733;BMP180;10527;52.124;5.196;2023-08-24T11:02:03;101279.00;;;34.50
20733;BMP180;10527;52.124;5.196;2023-08-24T11:04:30;101275.00;;;34.50
20733;BMP180;10527;52.124;5.196;2023-08-24T11:07:00;101285.00;;;34.50
20733;BMP180;10527;52.124;5.196;2023-08-24T11:09:46;101275.00;;;34.50
20733;BMP180;10527;52.124;5.196;2023-08-24T11:12:14;101274.00;;;34.50
20733;BMP180;10527;52.124;5.196;2023-08-24T11:14:52;101264.00;;;34.50
20733;BMP180;10527;52.124;5.196;2023-08-24T11:17:21;101261.00;;;34.40
20733;BMP180;10527;52.124;5.196;2023-08-24T11:19:51;101254.00;;;34.40
20733;BMP180;10527;52.124;5.196;2023-08-24T11:22:19;101268.00;;;34.40
20733;BMP180;10527;52.124;5.196;2023-08-24T11:24:46;101260.00;;;34.50
20733;BMP180;10527;52.124;5.196;2023-08-24T11:27:13;101247.00;;;34.50
20733;BMP180;10527;52.124;5.196;2023-08-24T11:29:43;101246.00;;;34.50
20733;BMP180;10527;52.124;5.196;2023-08-24T11:32:10;101240.00;;;34.50
20733;BMP180;10527;52.124;5.196;2023-08-24T11:34:38;101230.00;;;34.60
20733;BMP180;10527;52.124;5.196;2023-08-24T11:37:18;101218.00;;;34.60
20733;BMP180;10527;52.124;5.196;2023-08-24T11:39:45;101210.00;;;34.70
20733;BMP180;10527;52.124;5.196;2023-08-24T11:42:12;101211.00;;;34.70
20733;BMP180;10527;52.124;5.196;2023-08-24T11:44:47;101217.00;;;34.80
20733;BMP180;10527;52.124;5.196;2023-08-24T11:47:15;101217.00;;;34.80
20733;BMP180;10527;52.124;5.196;2023-08-24T11:49:42;101215.00;;;34.90
20733;BMP180;10527;52.124;5.196;2023-08-24T11:52:16;101215.00;;;34.90
20733;BMP180;10527;52.124;5.196;2023-08-24T11:54:43;101216.00;;;34.90
20733;BMP180;10527;52.124;5.196;2023-08-24T11:57:11;101222.00;;;35.00
20733;BMP180;10527;52.124;5.196;2023-08-24T11:59:39;101231.00;;;35.00
20733;BMP180;10527;52.124;5.196;2023-08-24T12:02:08;101217.00;;;35.10
20733;BMP180;10527;52.124;5.196;2023-08-24T12:04:48;101238.00;;;35.20
20733;BMP180;10527;52.124;5.196;2023-08-24T12:07:21;101230.00;;;35.30
20733;BMP180;10527;52.124;5.196;2023-08-24T12:09:47;101228.00;;;35.30
20733;BMP180;10527;52.124;5.196;2023-08-24T12:12:19;101218.00;;;35.40
20733;BMP180;10527;52.124;5.196;2023-08-24T12:14:48;101205.00;;;35.50
20733;BMP180;10527;52.124;5.196;2023-08-24T12:17:16;101183.00;;;35.60
20733;BMP180;10527;52.124;5.196;2023-08-24T12:20:22;101180.00;;;35.70
20733;BMP180;10527;52.124;5.196;2023-08-24T12:22:54;101175.00;;;35.70
20733;BMP180;10527;52.124;5.196;2023-08-24T12:25:25;101160.00;;;35.80
20733;BMP180;10527;52.124;5.196;2023-08-24T12:28:07;101157.00;;;35.80
20733;BMP180;10527;52.124;5.196;2023-08-24T12:30:52;101147.00;;;35.80
20733;BMP180;10527;52.124;5.196;2023-08-24T12:33:28;101148.00;;;35.80
20733;BMP180;10527;52.124;5.196;2023-08-24T12:35:56;101144.00;;;35.80
20733;BMP180;10527;52.124;5.196;2023-08-24T12:38:27;101140.00;;;35.90
20733;BMP180;10527;52.124;5.196;2023-08-24T12:40:56;101135.00;;;35.90
20733;BMP180;10527;52.124;5.196;2023-08-24T12:43:23;101125.00;;;35.90
20733;BMP180;10527;52.124;5.196;2023-08-24T12:45:50;101125.00;;;35.90
20733;BMP180;10527;52.124;5.196;2023-08-24T12:48:17;101110.00;;;36.00
20733;BMP180;10527;52.124;5.196;2023-08-24T12:50:44;101108.00;;;36.00
20733;BMP180;10527;52.124;5.196;2023-08-24T12:53:11;101095.00;;;36.10
20733;BMP180;10527;52.124;5.196;2023-08-24T12:55:40;101082.00;;;36.10
20733;BMP180;10527;52.124;5.196;2023-08-24T12:58:07;101062.00;;;36.20
20733;BMP180;10527;52.124;5.196;2023-08-24T13:00:33;101066.00;;;36.30
20733;BMP180;10527;52.124;5.196;2023-08-24T13:03:00;101069.00;;;36.30
20733;BMP180;10527;52.124;5.196;2023-08-24T13:05:27;101070.00;;;36.40
20733;BMP180;10527;52.124;5.196;2023-08-24T13:07:54;101075.00;;;36.40
20733;BMP180;10527;52.124;5.196;2023-08-24T13:10:21;101085.00;;;36.40
20733;BMP180;10527;52.124;5.196;2023-08-24T13:12:48;101095.00;;;36.40
20733;BMP180;10527;52.124;5.196;2023-08-24T13:15:15;101107.00;;;36.50
20733;BMP180;10527;52.124;5.196;2023-08-24T13:17:42;101113.00;;;36.50
20733;BMP180;10527;52.124;5.196;2023-08-24T13:20:10;101111.00;;;36.50
20733;BMP180;10527;52.124;5.196;2023-08-24T13:22:37;101121.00;;;36.50
20733;BMP180;10527;52.124;5.196;2023-08-24T13:25:04;101118.00;;;36.50
20733;BMP180;10527;52.124;5.196;2023-08-24T13:27:31;101099.00;;;36.50
20733;BMP180;10527;52.124;5.196;2023-08-24T13:30:02;101096.00;;;36.50
20733;BMP180;10527;52.124;5.196;2023-08-24T13:32:29;101103.00;;;36.50
20733;BMP180;10527;52.124;5.196;2023-08-24T13:34:56;101111.00;;;36.50
20733;BMP180;10527;52.124;5.196;2023-08-24T13:37:23;101109.00;;;36.50
20733;BMP180;10527;52.124;5.196;2023-08-24T13:39:51;101107.00;;;36.50
20733;BMP180;10527;52.124;5.196;2023-08-24T13:42:18;101118.00;;;36.50
20733;BMP180;10527;52.124;5.196;2023-08-24T13:44:46;101095.00;;;36.50
20733;BMP180;10527;52.124;5.196;2023-08-24T13:47:13;101102.00;;;36.50
20733;BMP180;10527;52.124;5.196;2023-08-24T13:49:40;101092.00;;;36.50
20733;BMP180;10527;52.124;5.196;2023-08-24T13:52:08;101089.00;;;36.50
20733;BMP180;10527;52.124;5.196;2023-08-24T13:54:35;101088.00;;;36.60
20733;BMP180;10527;52.124;5.196;2023-08-24T13:57:02;101081.00;;;36.60
20733;BMP180;10527;52.124;5.196;2023-08-24T13:59:29;101086.00;;;36.60
20733;BMP180;10527;52.124;5.196;2023-08-24T14:01:56;101087.00;;;36.60
20733;BMP180;10527;52.124;5.196;2023-08-24T14:04:23;101086.00;;;36.60
20733;BMP180;10527;52.124;5.196;2023-08-24T14:06:50;101090.00;;;36.60
20733;BMP180;10527;52.124;5.196;2023-08-24T14:09:17;101082.00;;;36.60
20733;BMP180;10527;52.124;5.196;2023-08-24T14:11:44;101092.00;;;36.60
20733;BMP180;10527;52.124;5.196;2023-08-24T14:14:14;101091.00;;;36.50
20733;BMP180;10527;52.124;5.196;2023-08-24T14:16:44;101088.00;;;36.50
20733;BMP180;10527;52.124;5.196;2023-08-24T14:19:12;101078.00;;;36.50